Time;durP1;ratioP1;P1;durP2;ratioP2;P2;SDS_P1;SDS_P2;PMS_P1;PMS_P2;Temp;Humidity;BMP_temperature;BMP_pressure;BME280_temperature;BME280_humidity;BME280_pressure;Samples;Min_cycle;Max_cycle;Signal;HPM_P1;HPM_P2
2023/08/29 00:00:31;;;;;;;23.60;19.33;;;11.40;99.90;;;;;;2064028;28;20585;-68
2023/08/29 00:01:32;;;;;;;21.33;18.70;;;11.40;99.90;;;;;;2063576;28;20324;-69
2023/08/29 00:02:33;;;;;;;20.70;18.00;;;11.40;99.90;;;;;;2063325;28;20249;-69
2023/08/29 00:03:34;;;;;;;22.40;18.92;;;11.40;99.90;;;;;;2063148;28;20603;-68
2023/08/29 00:04:35;;;;;;;19.33;17.33;;;11.40;99.90;;;;;;2063465;28;20230;-69
2023/08/29 00:05:38;;;;;;;20.40;18.13;;;11.30;99.90;;;;;;2063996;28;20222;-68
2023/08/29 00:06:38;;;;;;;20.77;18.48;;;11.30;99.90;;;;;;2063349;28;20218;-68
2023/08/29 00:07:39;;;;;;;21.27;18.73;;;11.30;99.90;;;;;;2055203;28;20731;-69
2023/08/29 00:08:40;;;;;;;21.30;19.07;;;11.30;99.90;;;;;;2055476;28;20237;-68
2023/08/29 00:09:41;;;;;;;22.30;18.77;;;11.30;99.90;;;;;;2063385;28;20725;-68
2023/08/29 00:10:43;;;;;;;22.20;19.73;;;11.40;99.90;;;;;;2063209;28;20222;-69
2023/08/29 00:11:43;;;;;;;22.55;19.17;;;11.40;99.90;;;;;;2063268;28;20222;-68
2023/08/29 00:12:44;;;;;;;21.33;18.70;;;11.30;99.90;;;;;;2064347;28;20226;-69
2023/08/29 00:13:45;;;;;;;22.90;20.37;;;11.20;99.90;;;;;;2063308;28;20241;-68
2023/08/29 00:14:46;;;;;;;21.70;19.40;;;11.20;99.90;;;;;;2049111;28;20223;-69
2023/08/29 00:15:47;;;;;;;25.92;19.98;;;11.30;99.90;;;;;;2058757;28;20227;-69
2023/08/29 00:16:48;;;;;;;20.10;17.63;;;11.40;99.90;;;;;;2052592;28;20731;-68
2023/08/29 00:17:49;;;;;;;22.43;19.63;;;11.30;99.90;;;;;;2055450;28;20269;-69
2023/08/29 00:18:49;;;;;;;23.52;19.73;;;11.30;99.90;;;;;;2064118;28;20226;-69
2023/08/29 00:19:50;;;;;;;25.30;19.30;;;11.30;99.90;;;;;;2063904;28;20222;-69
2023/08/29 00:20:53;;;;;;;22.00;19.63;;;11.20;99.90;;;;;;2063912;28;20365;-69
2023/08/29 00:21:55;;;;;;;19.38;17.33;;;11.10;99.90;;;;;;2063721;28;20280;-70
2023/08/29 00:22:55;;;;;;;22.60;19.67;;;11.10;99.90;;;;;;2064122;28;20229;-69
2023/08/29 00:23:56;;;;;;;22.50;19.67;;;11.20;99.90;;;;;;2063758;28;20241;-68
2023/08/29 00:24:57;;;;;;;23.90;20.43;;;11.20;99.90;;;;;;2054879;28;20266;-70
2023/08/29 00:25:58;;;;;;;21.33;17.98;;;11.30;99.90;;;;;;2055180;28;20604;-69
2023/08/29 00:26:59;;;;;;;24.40;19.13;;;11.20;99.90;;;;;;2070117;28;20252;-69
2023/08/29 00:27:59;;;;;;;20.30;17.67;;;11.20;99.90;;;;;;2062747;28;20226;-69
2023/08/29 00:29:00;;;;;;;21.03;18.73;;;11.10;99.90;;;;;;2063139;28;20740;-69
2023/08/29 00:30:01;;;;;;;20.60;18.40;;;11.00;99.90;;;;;;2063822;28;20237;-69
2023/08/29 00:31:02;;;;;;;22.80;20.33;;;11.00;99.90;;;;;;2062178;28;20230;-70
2023/08/29 00:32:03;;;;;;;25.70;21.70;;;11.10;99.90;;;;;;2064852;28;20246;-69
2023/08/29 00:33:05;;;;;;;23.98;19.52;;;11.20;99.90;;;;;;2064380;28;20186;-69
2023/08/29 00:34:06;;;;;;;23.00;19.30;;;11.10;99.90;;;;;;2052109;28;20196;-69
2023/08/29 00:35:07;;;;;;;22.27;19.47;;;11.20;99.90;;;;;;2054521;28;20195;-70
2023/08/29 00:36:08;;;;;;;24.25;20.20;;;11.20;99.90;;;;;;2062767;28;20190;-70
2023/08/29 00:37:08;;;;;;;24.47;20.50;;;11.20;99.90;;;;;;2060459;28;20189;-69
2023/08/29 00:38:11;;;;;;;24.10;20.37;;;11.30;99.90;;;;;;2070865;28;20194;-69
2023/08/29 00:39:12;;;;;;;24.42;19.85;;;11.30;99.90;;;;;;2070484;28;20193;-69
2023/08/29 00:40:12;;;;;;;23.37;18.83;;;11.30;99.90;;;;;;2049418;28;20274;-69
2023/08/29 00:41:13;;;;;;;23.80;19.73;;;11.30;99.90;;;;;;2056091;28;20249;-69
2023/08/29 00:42:14;;;;;;;24.67;20.23;;;11.30;99.90;;;;;;2062005;28;20614;-69
2023/08/29 00:43:15;;;;;;;23.73;21.00;;;11.30;99.90;;;;;;2062977;28;20186;-69
2023/08/29 00:44:16;;;;;;;24.80;21.37;;;11.40;99.90;;;;;;2071226;28;20711;-69
2023/08/29 00:45:17;;;;;;;27.83;21.85;;;11.40;99.90;;;;;;2060471;28;20785;-69
2023/08/29 00:46:19;;;;;;;24.33;21.07;;;11.50;99.90;;;;;;2062288;28;20187;-69
2023/08/29 00:47:21;;;;;;;24.30;21.70;;;11.50;99.90;;;;;;2061272;28;20190;-70
2023/08/29 00:48:22;;;;;;;21.73;18.35;;;11.40;99.90;;;;;;2065315;28;20696;-69
2023/08/29 00:49:26;;;;;;;24.58;20.17;;;11.40;99.90;;;;;;2061728;28;20226;-69
2023/08/29 00:50:28;;;;;;;21.75;19.23;;;11.40;99.90;;;;;;2052936;28;20313;-69
2023/08/29 00:51:29;;;;;;;25.25;19.92;;;11.40;99.90;;;;;;2054856;28;20239;-69
2023/08/29 00:52:30;;;;;;;24.20;20.50;;;11.30;99.90;;;;;;2062539;28;20230;-68
2023/08/29 00:53:31;;;;;;;23.65;20.77;;;11.30;99.90;;;;;;2054656;28;20284;-69
2023/08/29 00:54:32;;;;;;;23.55;21.02;;;11.30;99.90;;;;;;2059783;28;20223;-69
2023/08/29 00:55:34;;;;;;;28.23;21.23;;;11.40;99.90;;;;;;2059014;28;20226;-69
2023/08/29 00:56:35;;;;;;;25.75;21.27;;;11.40;99.90;;;;;;2055116;28;20269;-68
2023/08/29 00:57:36;;;;;;;25.17;20.33;;;11.50;99.90;;;;;;2054993;28;20219;-68
2023/08/29 00:58:37;;;;;;;26.30;22.00;;;11.50;99.90;;;;;;2054481;28;20219;-69
2023/08/29 00:59:38;;;;;;;27.73;22.63;;;11.60;99.90;;;;;;2062587;28;20214;-69
2023/08/29 01:00:39;;;;;;;26.03;21.60;;;11.70;99.90;;;;;;2061729;28;20608;-69
2023/08/29 01:01:40;;;;;;;24.10;20.67;;;11.70;99.90;;;;;;2060506;28;20293;-69
2023/08/29 01:02:40;;;;;;;26.55;20.92;;;11.70;99.90;;;;;;2062454;28;20470;-69
2023/08/29 01:03:41;;;;;;;28.03;22.27;;;11.80;99.90;;;;;;2062090;28;20865;-69
2023/08/29 01:04:42;;;;;;;28.47;22.83;;;11.80;99.90;;;;;;2055985;28;20226;-69
2023/08/29 01:05:43;;;;;;;25.77;21.63;;;11.80;99.90;;;;;;2061763;28;20222;-69
2023/08/29 01:06:43;;;;;;;26.03;21.63;;;11.80;99.90;;;;;;2058378;28;20260;-69
2023/08/29 01:07:44;;;;;;;27.07;22.33;;;11.90;99.90;;;;;;2053594;28;20571;-69
2023/08/29 01:08:45;;;;;;;30.03;21.90;;;11.80;99.90;;;;;;2049127;28;20287;-69
2023/08/29 01:09:46;;;;;;;25.07;21.27;;;11.80;99.90;;;;;;2058072;28;20235;-68
2023/08/29 01:11:00;;;;;;;25.20;22.07;;;11.80;99.90;;;;;;2061763;28;20289;-69
2023/08/29 01:12:17;;;;;;;24.85;21.55;;;11.80;99.90;;;;;;2062264;28;20614;-69
2023/08/29 01:13:33;;;;;;;31.67;21.75;;;11.80;99.90;;;;;;2046693;28;20282;-68
2023/08/29 01:14:58;;;;;;;23.90;20.15;;;11.80;99.90;;;;;;2053700;28;20631;-69
2023/08/29 01:16:03;;;;;;;25.40;21.10;;;11.80;99.90;;;;;;2050034;28;20229;-68
2023/08/29 01:17:54;;;;;;;25.63;21.85;;;11.90;99.90;;;;;;2043219;28;20228;-69
2023/08/29 01:18:56;;;;;;;26.00;22.33;;;11.90;99.90;;;;;;2062565;28;20300;-69
2023/08/29 01:19:58;;;;;;;24.52;20.67;;;11.90;99.90;;;;;;2061942;28;20300;-69
2023/08/29 01:21:24;;;;;;;26.00;22.20;;;11.90;99.90;;;;;;2061595;28;20299;-68
2023/08/29 01:23:19;;;;;;;28.13;22.80;;;11.90;99.90;;;;;;2059023;28;20245;-69
2023/08/29 01:24:53;;;;;;;28.88;22.25;;;11.90;99.90;;;;;;2057023;28;20222;-69
2023/08/29 01:26:13;;;;;;;26.77;21.58;;;11.90;99.90;;;;;;2062717;28;20791;-69
2023/08/29 01:27:13;;;;;;;29.30;23.33;;;11.90;99.90;;;;;;2068097;28;20232;-69
2023/08/29 01:28:15;;;;;;;27.87;22.70;;;11.90;99.90;;;;;;2061091;28;20197;-69
2023/08/29 01:29:16;;;;;;;27.17;22.98;;;11.90;99.90;;;;;;2053847;28;20233;-69
2023/08/29 01:30:17;;;;;;;27.67;22.67;;;11.80;99.90;;;;;;2054093;28;20229;-68
2023/08/29 01:31:19;;;;;;;31.15;23.77;;;11.70;99.90;;;;;;2046757;28;20449;-69
2023/08/29 01:32:21;;;;;;;27.60;23.23;;;11.70;99.90;;;;;;2047210;28;20206;-69
2023/08/29 01:33:21;;;;;;;27.98;23.60;;;11.70;99.90;;;;;;2063400;28;20269;-69
2023/08/29 01:34:22;;;;;;;33.07;26.13;;;11.80;99.90;;;;;;2068100;28;20240;-69
2023/08/29 01:35:23;;;;;;;30.85;25.00;;;11.80;99.90;;;;;;2061361;28;20616;-69
2023/08/29 01:36:41;;;;;;;28.03;23.63;;;11.90;99.90;;;;;;2061644;28;20230;-69
2023/08/29 01:37:41;;;;;;;31.92;25.08;;;11.80;99.90;;;;;;2061566;28;20975;-68
2023/08/29 01:38:42;;;;;;;30.97;24.93;;;11.80;99.90;;;;;;2045701;28;20212;-69
2023/08/29 01:39:43;;;;;;;26.50;22.93;;;11.80;99.90;;;;;;2054237;28;20219;-68
2023/08/29 01:40:44;;;;;;;31.87;25.20;;;11.80;99.90;;;;;;2058852;28;20278;-68
2023/08/29 01:41:45;;;;;;;28.80;24.27;;;11.80;99.90;;;;;;2054263;28;20239;-69
2023/08/29 01:42:46;;;;;;;29.40;25.03;;;11.80;99.90;;;;;;2061694;28;20658;-68
2023/08/29 01:43:47;;;;;;;31.63;23.73;;;11.80;99.90;;;;;;2059416;28;20226;-68
2023/08/29 01:44:47;;;;;;;28.80;23.80;;;11.90;99.90;;;;;;2062044;28;21006;-68
2023/08/29 01:45:48;;;;;;;25.33;22.60;;;11.90;99.90;;;;;;2063792;28;20230;-68
2023/08/29 01:46:49;;;;;;;26.00;22.70;;;11.90;99.90;;;;;;2052279;28;20272;-68
2023/08/29 01:47:49;;;;;;;27.63;23.87;;;11.90;99.90;;;;;;2063678;28;20989;-68
2023/08/29 01:48:50;;;;;;;27.47;22.23;;;11.90;99.90;;;;;;2060478;28;20241;-68
2023/08/29 01:49:52;;;;;;;27.40;23.87;;;11.90;99.90;;;;;;2052327;28;20230;-68
2023/08/29 01:50:52;;;;;;;27.80;23.85;;;11.90;99.90;;;;;;2058952;28;20221;-68
2023/08/29 01:51:53;;;;;;;27.87;23.37;;;12.00;99.90;;;;;;2062378;28;20249;-68
2023/08/29 01:52:55;;;;;;;29.17;23.47;;;11.90;99.90;;;;;;2059325;28;20214;-68
2023/08/29 01:53:57;;;;;;;29.00;23.65;;;12.00;99.90;;;;;;2054228;28;20222;-68
2023/08/29 01:54:58;;;;;;;27.67;22.75;;;12.00;99.90;;;;;;2051916;28;20222;-68
2023/08/29 01:56:00;;;;;;;25.77;21.42;;;12.00;99.90;;;;;;2052994;28;20289;-68
2023/08/29 01:57:03;;;;;;;24.35;20.75;;;12.00;99.90;;;;;;2061747;28;20229;-68
2023/08/29 01:58:05;;;;;;;29.00;21.92;;;12.00;99.90;;;;;;2059963;28;20226;-68
2023/08/29 01:59:06;;;;;;;30.67;22.40;;;12.10;99.90;;;;;;2058277;28;20197;-68
2023/08/29 02:00:08;;;;;;;23.10;20.38;;;12.20;99.90;;;;;;2042477;28;20202;-69
2023/08/29 02:01:09;;;;;;;22.15;19.58;;;12.10;99.90;;;;;;2040724;28;20220;-68
2023/08/29 02:02:10;;;;;;;25.50;20.48;;;12.10;99.90;;;;;;2046108;28;20184;-68
2023/08/29 02:03:11;;;;;;;27.23;22.50;;;11.90;99.90;;;;;;2061454;28;20688;-69
2023/08/29 02:04:12;;;;;;;25.10;22.30;;;11.90;99.90;;;;;;2061281;28;20232;-68
2023/08/29 02:05:12;;;;;;;26.37;22.13;;;11.90;99.90;;;;;;2060867;28;20210;-68
2023/08/29 02:06:14;;;;;;;24.00;20.00;;;11.90;99.90;;;;;;2061315;28;20583;-68
2023/08/29 02:07:14;;;;;;;28.65;21.20;;;12.00;99.90;;;;;;2061870;28;20647;-68
2023/08/29 02:08:15;;;;;;;25.17;20.07;;;11.90;99.90;;;;;;2062382;28;20186;-68
2023/08/29 02:09:16;;;;;;;26.43;20.80;;;11.90;99.90;;;;;;2061054;28;20658;-68
2023/08/29 02:10:17;;;;;;;23.57;20.73;;;11.90;99.90;;;;;;2066741;28;20205;-68
2023/08/29 02:11:19;;;;;;;24.90;19.53;;;11.90;99.90;;;;;;2058559;28;20214;-68
2023/08/29 02:12:20;;;;;;;24.27;20.85;;;11.90;99.90;;;;;;2061854;28;20670;-68
2023/08/29 02:13:20;;;;;;;25.00;20.60;;;11.90;99.90;;;;;;2068656;28;20189;-68
2023/08/29 02:14:21;;;;;;;27.13;21.47;;;12.00;99.90;;;;;;2061646;28;20246;-68
2023/08/29 02:15:22;;;;;;;24.50;18.80;;;11.90;99.90;;;;;;2058092;28;20238;-69
2023/08/29 02:16:24;;;;;;;26.07;21.60;;;12.00;99.90;;;;;;2057938;28;20230;-68
2023/08/29 02:17:25;;;;;;;27.55;21.13;;;12.00;99.90;;;;;;2064403;28;20222;-68
2023/08/29 02:18:25;;;;;;;24.17;20.50;;;12.00;99.90;;;;;;2063811;28;20324;-68
2023/08/29 02:19:28;;;;;;;25.67;20.00;;;12.00;99.90;;;;;;2061332;28;20240;-68
2023/08/29 02:20:28;;;;;;;27.67;21.23;;;12.00;99.90;;;;;;2061753;28;20234;-68
2023/08/29 02:21:29;;;;;;;30.50;22.17;;;12.00;99.90;;;;;;2055344;28;20234;-68
2023/08/29 02:22:30;;;;;;;29.80;22.27;;;12.00;99.90;;;;;;2053786;28;20309;-68
2023/08/29 02:23:31;;;;;;;28.15;21.35;;;12.00;99.90;;;;;;2053749;28;20227;-68
2023/08/29 02:24:32;;;;;;;30.93;21.57;;;12.00;99.90;;;;;;2061970;28;20300;-68
2023/08/29 02:25:33;;;;;;;29.87;21.83;;;12.00;99.90;;;;;;2062014;28;20233;-68
2023/08/29 02:26:34;;;;;;;27.10;21.33;;;12.00;99.90;;;;;;2061864;28;20234;-68
2023/08/29 02:27:34;;;;;;;24.50;20.08;;;12.10;99.90;;;;;;2061680;28;20228;-68
2023/08/29 02:28:37;;;;;;;30.77;22.63;;;12.00;99.90;;;;;;2065904;28;20229;-68
2023/08/29 02:29:38;;;;;;;25.00;20.05;;;12.00;99.90;;;;;;2067385;28;20222;-68
2023/08/29 02:30:39;;;;;;;27.23;21.52;;;12.00;99.90;;;;;;2062211;28;20305;-68
2023/08/29 02:31:39;;;;;;;27.43;20.93;;;12.00;99.90;;;;;;2053884;28;20227;-68
2023/08/29 02:32:40;;;;;;;25.17;20.77;;;11.90;99.90;;;;;;2045940;28;20841;-68
2023/08/29 02:33:41;;;;;;;24.37;19.73;;;12.00;99.90;;;;;;2045756;28;20254;-68
2023/08/29 02:34:42;;;;;;;28.13;22.13;;;12.00;99.90;;;;;;2061845;28;20301;-68
2023/08/29 02:35:42;;;;;;;32.40;22.63;;;11.90;99.90;;;;;;2058591;28;20258;-68
2023/08/29 02:36:43;;;;;;;28.03;21.20;;;11.90;99.90;;;;;;2061845;28;20245;-68
2023/08/29 02:37:44;;;;;;;30.73;22.63;;;11.90;99.90;;;;;;2061959;28;20218;-68
2023/08/29 02:38:44;;;;;;;25.43;21.53;;;11.90;99.90;;;;;;2062669;28;20245;-69
2023/08/29 02:39:45;;;;;;;23.40;19.15;;;11.90;99.90;;;;;;2061853;28;20312;-68
2023/08/29 02:40:46;;;;;;;24.07;21.10;;;11.80;99.90;;;;;;2061824;28;20229;-68
2023/08/29 02:41:48;;;;;;;30.27;22.08;;;11.80;99.90;;;;;;2053128;28;20229;-68
2023/08/29 02:42:48;;;;;;;24.23;21.48;;;11.80;99.90;;;;;;2053585;28;20256;-68
2023/08/29 02:43:49;;;;;;;28.33;19.80;;;11.80;99.90;;;;;;2061578;28;20214;-68
2023/08/29 02:44:50;;;;;;;27.57;22.07;;;11.90;99.90;;;;;;2062207;28;20693;-69
2023/08/29 02:45:50;;;;;;;25.53;20.60;;;11.80;99.90;;;;;;2062080;28;20251;-68
2023/08/29 02:46:51;;;;;;;27.40;22.17;;;11.80;99.90;;;;;;2062231;28;20226;-68
2023/08/29 02:47:52;;;;;;;25.53;21.20;;;11.80;99.90;;;;;;2062462;28;20229;-68
2023/08/29 02:48:53;;;;;;;24.87;22.23;;;11.70;99.90;;;;;;2062321;28;20226;-68
2023/08/29 02:49:53;;;;;;;23.77;19.63;;;11.70;99.90;;;;;;2060406;28;20222;-68
2023/08/29 02:50:54;;;;;;;23.00;19.40;;;11.70;99.90;;;;;;2062152;28;20279;-68
2023/08/29 02:51:56;;;;;;;24.50;21.83;;;11.70;99.90;;;;;;2061276;28;20379;-69
2023/08/29 02:52:58;;;;;;;26.27;21.42;;;11.70;99.90;;;;;;2062228;28;20229;-68
2023/08/29 02:53:58;;;;;;;23.13;19.87;;;11.60;99.90;;;;;;2062062;28;20230;-68
2023/08/29 02:55:00;;;;;;;29.30;21.35;;;11.70;99.90;;;;;;2061082;28;20238;-68
2023/08/29 02:56:01;;;;;;;25.40;20.15;;;11.70;99.90;;;;;;2061821;28;20229;-68
2023/08/29 02:57:02;;;;;;;28.83;21.77;;;11.80;99.90;;;;;;2063269;28;20228;-70
2023/08/29 02:58:03;;;;;;;28.10;21.87;;;11.70;99.90;;;;;;2062449;28;20285;-69
2023/08/29 02:59:04;;;;;;;28.10;21.73;;;11.70;99.90;;;;;;2062024;28;20329;-69
2023/08/29 03:00:05;;;;;;;25.50;21.17;;;11.80;99.90;;;;;;2061341;28;20253;-68
2023/08/29 03:01:11;;;;;;;29.95;22.00;;;11.80;99.90;;;;;;2062247;28;20233;-68
2023/08/29 03:02:12;;;;;;;22.85;18.35;;;11.80;99.90;;;;;;2061839;28;20222;-68
2023/08/29 03:03:13;;;;;;;24.80;20.13;;;11.90;99.90;;;;;;2057476;28;20201;-68
2023/08/29 03:04:14;;;;;;;26.35;21.70;;;11.80;99.90;;;;;;2056953;28;20660;-69
2023/08/29 03:05:15;;;;;;;26.07;21.47;;;11.80;99.90;;;;;;2055829;28;20267;-68
2023/08/29 03:06:16;;;;;;;25.98;20.83;;;11.70;99.90;;;;;;2063980;28;20675;-69
2023/08/29 03:07:16;;;;;;;27.37;22.40;;;11.80;99.90;;;;;;2070294;28;20185;-68
2023/08/29 03:08:17;;;;;;;36.63;23.90;;;11.70;99.90;;;;;;2069629;28;20708;-68
2023/08/29 03:09:18;;;;;;;38.53;23.47;;;11.70;99.90;;;;;;2061081;28;20674;-68
2023/08/29 03:10:19;;;;;;;26.37;21.53;;;11.70;99.90;;;;;;2058308;28;20182;-68
2023/08/29 03:11:19;;;;;;;26.77;20.53;;;11.50;99.90;;;;;;2052096;28;20726;-68
2023/08/29 03:12:20;;;;;;;27.57;21.70;;;11.50;99.90;;;;;;2048484;28;20202;-68
2023/08/29 03:13:22;;;;;;;25.43;21.80;;;11.60;99.90;;;;;;2064885;28;20713;-68
2023/08/29 03:14:23;;;;;;;27.50;22.13;;;11.60;99.90;;;;;;2062246;28;20230;-68
2023/08/29 03:15:23;;;;;;;27.17;21.40;;;11.60;99.90;;;;;;2047895;28;20235;-68
2023/08/29 03:16:24;;;;;;;26.83;19.93;;;11.70;99.90;;;;;;2055557;28;20614;-68
2023/08/29 03:17:25;;;;;;;27.23;21.90;;;11.70;99.90;;;;;;2061257;28;20746;-68
2023/08/29 03:18:28;;;;;;;32.88;23.33;;;11.70;99.90;;;;;;2045681;28;20298;-68
2023/08/29 03:19:29;;;;;;;28.50;22.25;;;11.70;99.90;;;;;;2053746;28;20608;-68
2023/08/29 03:20:30;;;;;;;29.97;22.53;;;11.80;99.90;;;;;;2061646;28;20313;-68
2023/08/29 03:21:30;;;;;;;26.43;20.97;;;11.80;99.90;;;;;;2052241;28;20756;-68
2023/08/29 03:22:31;;;;;;;24.23;20.43;;;11.80;99.90;;;;;;2060807;28;20233;-68
2023/08/29 03:23:33;;;;;;;24.63;21.53;;;11.70;99.90;;;;;;2062020;28;20218;-68
2023/08/29 03:24:33;;;;;;;26.40;19.88;;;11.60;99.90;;;;;;2062469;28;20261;-68
2023/08/29 03:25:34;;;;;;;23.60;20.07;;;11.60;99.90;;;;;;2062717;28;20229;-68
2023/08/29 03:26:35;;;;;;;25.10;19.17;;;11.60;99.90;;;;;;2054875;28;20738;-68
2023/08/29 03:27:36;;;;;;;27.03;21.67;;;11.70;99.90;;;;;;2064365;28;20221;-68
2023/08/29 03:28:37;;;;;;;21.40;19.10;;;11.70;99.90;;;;;;2063451;28;20222;-68
2023/08/29 03:29:37;;;;;;;27.80;20.77;;;11.70;99.90;;;;;;2055007;28;20226;-68
2023/08/29 03:30:38;;;;;;;25.93;19.73;;;11.60;99.90;;;;;;2054776;28;20234;-68
2023/08/29 03:31:39;;;;;;;24.20;20.17;;;11.50;99.90;;;;;;2062439;28;20241;-68
2023/08/29 03:32:39;;;;;;;27.90;20.10;;;11.40;99.90;;;;;;2063136;28;20229;-68
2023/08/29 03:33:41;;;;;;;24.93;21.50;;;11.40;99.90;;;;;;2050832;28;20374;-68
2023/08/29 03:34:42;;;;;;;26.90;21.65;;;11.40;99.90;;;;;;2055125;28;20223;-68
2023/08/29 03:35:43;;;;;;;23.53;20.73;;;11.50;99.90;;;;;;2055298;28;20219;-68
2023/08/29 03:36:43;;;;;;;25.63;21.40;;;11.50;99.90;;;;;;2067091;28;20232;-68
2023/08/29 03:37:45;;;;;;;32.10;23.30;;;11.50;99.90;;;;;;2063269;28;20222;-68
2023/08/29 03:38:45;;;;;;;30.98;23.27;;;11.50;99.90;;;;;;2054737;28;20230;-68
2023/08/29 03:39:46;;;;;;;24.93;20.50;;;11.60;99.90;;;;;;2062903;28;20222;-68
2023/08/29 03:40:58;;;;;;;26.37;21.53;;;11.60;99.90;;;;;;2063560;28;20229;-68
2023/08/29 03:41:58;;;;;;;25.02;20.35;;;11.70;99.90;;;;;;2062869;28;20460;-68
2023/08/29 03:42:59;;;;;;;29.17;22.77;;;11.70;99.90;;;;;;2064989;28;20222;-68
2023/08/29 03:44:00;;;;;;;27.67;21.70;;;11.70;99.90;;;;;;2061235;28;20762;-68
2023/08/29 03:45:00;;;;;;;28.00;23.00;;;11.60;99.90;;;;;;2062286;28;20221;-69
2023/08/29 03:46:06;;;;;;;29.17;22.80;;;11.60;99.90;;;;;;2062933;28;20221;-68
2023/08/29 03:47:07;;;;;;;25.27;22.00;;;11.60;99.90;;;;;;2054411;28;20255;-69
2023/08/29 03:48:08;;;;;;;25.60;21.93;;;11.60;99.90;;;;;;2062567;28;20248;-69
2023/08/29 03:49:08;;;;;;;25.93;21.87;;;11.60;99.90;;;;;;2062909;28;20197;-69
2023/08/29 03:50:09;;;;;;;27.00;23.20;;;11.60;99.90;;;;;;2063266;28;20273;-68
2023/08/29 03:51:10;;;;;;;33.30;23.37;;;11.50;99.90;;;;;;2054821;28;20245;-69
2023/08/29 03:52:21;;;;;;;32.65;23.27;;;11.50;99.90;;;;;;2062774;28;20329;-68
2023/08/29 03:53:22;;;;;;;35.33;24.75;;;11.50;99.90;;;;;;2063157;28;23544;-68
2023/08/29 03:54:23;;;;;;;27.40;22.60;;;11.50;99.90;;;;;;2062262;28;20230;-68
2023/08/29 03:55:23;;;;;;;26.17;22.00;;;11.50;99.90;;;;;;2059327;28;20310;-68
2023/08/29 03:56:24;;;;;;;30.00;22.70;;;11.50;99.90;;;;;;2055084;28;20676;-68
2023/08/29 03:57:28;;;;;;;30.20;22.97;;;11.50;99.90;;;;;;2048808;28;20230;-68
2023/08/29 03:58:33;;;;;;;33.22;24.35;;;11.50;99.90;;;;;;2043328;28;20629;-68
2023/08/29 03:59:33;;;;;;;30.40;22.33;;;11.60;99.90;;;;;;2059773;28;20230;-68
2023/08/29 04:00:34;;;;;;;31.07;23.70;;;11.60;99.90;;;;;;2070615;28;20718;-68
2023/08/29 04:01:35;;;;;;;35.15;23.13;;;11.60;99.90;;;;;;2062249;28;20708;-68
2023/08/29 04:02:37;;;;;;;32.70;23.50;;;11.60;99.90;;;;;;2062855;28;20229;-68
2023/08/29 04:03:38;;;;;;;28.48;23.02;;;11.60;99.90;;;;;;2055807;28;20844;-68
2023/08/29 04:04:39;;;;;;;28.73;23.17;;;11.60;99.90;;;;;;2047576;28;20255;-68
2023/08/29 04:05:39;;;;;;;32.97;23.00;;;11.60;99.90;;;;;;2046713;28;20664;-68
2023/08/29 04:06:41;;;;;;;33.23;24.70;;;11.70;99.90;;;;;;2062859;28;20431;-68
2023/08/29 04:07:42;;;;;;;35.88;24.02;;;11.70;99.90;;;;;;2062995;28;20321;-68
2023/08/29 04:08:43;;;;;;;33.22;23.73;;;11.80;99.90;;;;;;2062838;28;20225;-68
2023/08/29 04:09:44;;;;;;;29.30;21.92;;;11.70;99.90;;;;;;2063620;28;20597;-68
2023/08/29 04:10:45;;;;;;;31.70;23.83;;;11.60;99.90;;;;;;2062576;28;20229;-68
2023/08/29 04:11:46;;;;;;;28.80;23.73;;;11.50;99.90;;;;;;2062833;28;20288;-68
2023/08/29 04:12:46;;;;;;;29.63;23.30;;;11.50;99.90;;;;;;2066996;28;20359;-68
2023/08/29 04:13:47;;;;;;;33.23;23.73;;;11.50;99.90;;;;;;2066780;28;20708;-68
2023/08/29 04:14:48;;;;;;;29.63;23.60;;;11.50;99.90;;;;;;2062825;28;20222;-68
2023/08/29 04:15:49;;;;;;;29.93;23.70;;;11.50;99.90;;;;;;2062323;28;20280;-68
2023/08/29 04:16:49;;;;;;;29.33;23.57;;;11.50;99.90;;;;;;2053122;28;20244;-68
2023/08/29 04:17:50;;;;;;;34.13;24.47;;;11.60;99.90;;;;;;2057853;28;20230;-68
2023/08/29 04:18:51;;;;;;;29.87;24.20;;;11.60;99.90;;;;;;2061302;28;20313;-68
2023/08/29 04:19:51;;;;;;;29.73;23.57;;;11.60;99.90;;;;;;2060725;28;20264;-68
2023/08/29 04:20:52;;;;;;;26.83;23.13;;;11.50;99.90;;;;;;2063147;28;20229;-68
2023/08/29 04:21:53;;;;;;;33.83;24.33;;;11.50;99.90;;;;;;2070631;28;20225;-68
2023/08/29 04:22:55;;;;;;;33.43;25.37;;;11.50;99.90;;;;;;2062637;28;20686;-69
2023/08/29 04:23:55;;;;;;;42.10;26.27;;;11.70;99.90;;;;;;2062817;28;20226;-68
2023/08/29 04:24:56;;;;;;;32.60;25.20;;;11.70;99.90;;;;;;2070761;28;20612;-68
2023/08/29 04:25:59;;;;;;;32.83;24.50;;;11.60;99.90;;;;;;2054718;28;20227;-68
2023/08/29 04:27:00;;;;;;;33.38;24.55;;;11.60;99.90;;;;;;2041570;28;20224;-68
2023/08/29 04:28:00;;;;;;;30.13;24.07;;;11.60;99.90;;;;;;2057038;28;20302;-68
2023/08/29 04:29:01;;;;;;;34.50;24.30;;;11.60;99.90;;;;;;2065392;28;20737;-68
2023/08/29 04:30:03;;;;;;;33.63;24.80;;;11.60;99.90;;;;;;2062023;28;20218;-70
2023/08/29 04:31:14;;;;;;;29.95;23.05;;;11.70;99.90;;;;;;2062588;28;20210;-69
2023/08/29 04:32:15;;;;;;;27.52;21.08;;;11.70;99.90;;;;;;2058943;28;20186;-69
2023/08/29 04:33:16;;;;;;;33.43;23.70;;;11.70;99.90;;;;;;2062629;28;20353;-69
2023/08/29 04:34:17;;;;;;;29.53;23.73;;;11.80;99.90;;;;;;2062680;28;20198;-68
2023/08/29 04:35:18;;;;;;;29.60;23.83;;;11.80;99.90;;;;;;2060686;28;20189;-68
2023/08/29 04:36:18;;;;;;;35.30;25.00;;;11.70;99.90;;;;;;2066686;28;20266;-67
2023/08/29 04:37:20;;;;;;;33.37;24.87;;;11.80;99.90;;;;;;2059282;28;20195;-68
2023/08/29 04:38:20;;;;;;;37.88;25.70;;;11.70;99.90;;;;;;2063691;28;20194;-68
2023/08/29 04:39:21;;;;;;;38.10;26.23;;;11.80;99.90;;;;;;2070921;28;22099;-68
2023/08/29 04:40:22;;;;;;;33.07;24.23;;;11.80;99.90;;;;;;2070722;28;20280;-68
2023/08/29 04:41:22;;;;;;;31.87;24.73;;;11.90;99.90;;;;;;2059863;28;20292;-68
2023/08/29 04:42:24;;;;;;;32.33;25.30;;;11.70;99.90;;;;;;2063066;28;20575;-68
2023/08/29 04:43:26;;;;;;;31.35;24.70;;;11.70;99.90;;;;;;2062041;28;20330;-67
2023/08/29 04:44:29;;;;;;;36.75;25.48;;;11.70;99.90;;;;;;2062090;28;20234;-68
2023/08/29 04:45:30;;;;;;;30.83;23.02;;;11.70;99.90;;;;;;2062028;28;20234;-68
2023/08/29 04:46:30;;;;;;;39.27;26.90;;;11.80;99.90;;;;;;2061983;28;20265;-68
2023/08/29 04:47:31;;;;;;;42.50;27.00;;;11.80;99.90;;;;;;2052231;28;20250;-68
2023/08/29 04:48:34;;;;;;;44.17;28.38;;;11.80;99.90;;;;;;2062917;28;20690;-68
2023/08/29 04:49:35;;;;;;;52.50;29.38;;;11.80;99.90;;;;;;2062473;28;20228;-68
2023/08/29 04:50:35;;;;;;;41.80;26.60;;;11.90;99.90;;;;;;2061906;28;20218;-68
2023/08/29 04:51:37;;;;;;;32.40;25.27;;;11.90;99.90;;;;;;2061742;28;20218;-68
2023/08/29 04:52:38;;;;;;;34.03;25.50;;;11.90;99.90;;;;;;2062325;28;20276;-70
2023/08/29 04:53:39;;;;;;;41.33;27.20;;;11.80;99.90;;;;;;2058715;28;20897;-68
2023/08/29 04:54:40;;;;;;;37.13;27.13;;;11.80;99.90;;;;;;2062596;28;20218;-68
2023/08/29 04:55:40;;;;;;;44.73;28.57;;;11.80;99.90;;;;;;2063331;28;20225;-68
2023/08/29 04:56:41;;;;;;;42.10;26.83;;;11.80;99.90;;;;;;2062921;28;20313;-68
2023/08/29 04:57:42;;;;;;;40.00;26.47;;;11.70;99.90;;;;;;2062574;28;20710;-68
2023/08/29 04:58:43;;;;;;;42.95;28.00;;;11.70;99.90;;;;;;2063248;28;20222;-68
2023/08/29 04:59:43;;;;;;;39.67;26.67;;;11.70;99.90;;;;;;2062855;28;20332;-67
2023/08/29 05:00:44;;;;;;;30.07;25.37;;;11.70;99.90;;;;;;2063056;28;20706;-67
2023/08/29 05:01:45;;;;;;;36.30;26.37;;;11.60;99.90;;;;;;2053501;28;20223;-67
2023/08/29 05:02:45;;;;;;;35.07;27.03;;;11.60;99.90;;;;;;2051285;28;20711;-67
2023/08/29 05:03:47;;;;;;;35.30;26.27;;;11.60;99.90;;;;;;2062348;28;20301;-68
2023/08/29 05:04:48;;;;;;;31.38;25.67;;;11.70;99.90;;;;;;2062601;28;20297;-68
2023/08/29 05:05:49;;;;;;;34.37;25.43;;;11.70;99.90;;;;;;2055119;28;20234;-68
2023/08/29 05:06:50;;;;;;;41.58;28.75;;;11.70;99.90;;;;;;2053862;28;20305;-67
2023/08/29 05:07:50;;;;;;;35.87;27.30;;;11.80;99.90;;;;;;2054402;28;20227;-67
2023/08/29 05:08:51;;;;;;;38.57;27.70;;;11.80;99.90;;;;;;2059866;28;20248;-67
2023/08/29 05:09:52;;;;;;;34.37;25.87;;;11.80;99.90;;;;;;2063216;28;20214;-67
2023/08/29 05:10:52;;;;;;;33.33;25.87;;;11.90;99.90;;;;;;2063367;28;20225;-67
2023/08/29 05:11:53;;;;;;;36.83;26.40;;;11.80;99.90;;;;;;2063057;28;20222;-68
2023/08/29 05:12:54;;;;;;;35.97;26.97;;;11.90;99.90;;;;;;2054439;28;20604;-67
2023/08/29 05:13:54;;;;;;;34.10;27.20;;;11.90;99.90;;;;;;2054346;28;20238;-68
2023/08/29 05:14:55;;;;;;;32.63;25.20;;;11.90;99.90;;;;;;2061020;28;20229;-68